sensor_id;sensor_type;location;lat;lon;timestamp;P1;durP1;ratioP1;P2;durP2;ratioP2
11220;SDS011;8517;53.546;10.104;2024-03-08T00:00:33;20.20;;;13.40;;
11220;SDS011;8517;53.546;10.104;2024-03-08T00:03:00;18.43;;;12.07;;
11220;SDS011;8517;53.546;10.104;2024-03-08T00:05:27;18.77;;;12.33;;
11220;SDS011;8517;53.546;10.104;2024-03-08T00:07:54;18.80;;;12.63;;
11220;SDS011;8517;53.546;10.104;2024-03-08T00:10:22;19.67;;;13.60;;
11220;SDS011;8517;53.546;10.104;2024-03-08T00:12:49;18.90;;;12.67;;
11220;SDS011;8517;53.546;10.104;2024-03-08T00:15:18;17.70;;;11.40;;
11220;SDS011;8517;53.546;10.104;2024-03-08T00:17:45;19.10;;;12.93;;
11220;SDS011;8517;53.546;10.104;2024-03-08T00:20:12;17.47;;;12.23;;
11220;SDS011;8517;53.546;10.104;2024-03-08T00:22:39;19.97;;;13.63;;
11220;SDS011;8517;53.546;10.104;2024-03-08T00:25:06;17.83;;;12.70;;
11220;SDS011;8517;53.546;10.104;2024-03-08T00:27:36;20.27;;;12.73;;
11220;SDS011;8517;53.546;10.104;2024-03-08T00:30:03;19.37;;;14.03;;
11220;SDS011;8517;53.546;10.104;2024-03-08T00:32:31;20.17;;;12.87;;
11220;SDS011;8517;53.546;10.104;2024-03-08T00:34:58;18.57;;;12.13;;
11220;SDS011;8517;53.546;10.104;2024-03-08T00:37:25;18.90;;;13.70;;
11220;SDS011;8517;53.546;10.104;2024-03-08T00:39:52;17.63;;;12.73;;
11220;SDS011;8517;53.546;10.104;2024-03-08T00:42:19;17.10;;;10.80;;
11220;SDS011;8517;53.546;10.104;2024-03-08T00:44:48;19.30;;;13.17;;
11220;SDS011;8517;53.546;10.104;2024-03-08T00:47:16;18.40;;;11.83;;
11220;SDS011;8517;53.546;10.104;2024-03-08T00:49:42;17.17;;;12.47;;
11220;SDS011;8517;53.546;10.104;2024-03-08T00:52:09;19.70;;;12.63;;
11220;SDS011;8517;53.546;10.104;2024-03-08T00:54:36;19.23;;;13.93;;
11220;SDS011;8517;53.546;10.104;2024-03-08T00:57:03;18.33;;;12.43;;
11220;SDS011;8517;53.546;10.104;2024-03-08T00:59:31;18.43;;;13.20;;
11220;SDS011;8517;53.546;10.104;2024-03-08T01:02:00;18.53;;;12.80;;
11220;SDS011;8517;53.546;10.104;2024-03-08T01:04:27;19.37;;;13.53;;
11220;SDS011;8517;53.546;10.104;2024-03-08T01:06:54;21.73;;;12.60;;
11220;SDS011;8517;53.546;10.104;2024-03-08T01:09:21;17.77;;;13.80;;
11220;SDS011;8517;53.546;10.104;2024-03-08T01:11:48;18.20;;;13.00;;
11220;SDS011;8517;53.546;10.104;2024-03-08T01:14:15;17.87;;;12.07;;
11220;SDS011;8517;53.546;10.104;2024-03-08T01:16:42;18.27;;;12.67;;
11220;SDS011;8517;53.546;10.104;2024-03-08T01:19:10;17.80;;;12.53;;
11220;SDS011;8517;53.546;10.104;2024-03-08T01:21:38;23.17;;;14.13;;
11220;SDS011;8517;53.546;10.104;2024-03-08T01:24:05;17.87;;;12.80;;
11220;SDS011;8517;53.546;10.104;2024-03-08T01:26:32;21.17;;;13.77;;
11220;SDS011;8517;53.546;10.104;2024-03-08T01:28:59;20.23;;;14.23;;
11220;SDS011;8517;53.546;10.104;2024-03-08T01:31:28;18.20;;;13.23;;
11220;SDS011;8517;53.546;10.104;2024-03-08T01:33:55;17.73;;;13.13;;
11220;SDS011;8517;53.546;10.104;2024-03-08T01:36:23;20.50;;;13.43;;
11220;SDS011;8517;53.546;10.104;2024-03-08T01:38:50;21.00;;;13.63;;
11220;SDS011;8517;53.546;10.104;2024-03-08T01:41:17;21.73;;;13.17;;
11220;SDS011;8517;53.546;10.104;2024-03-08T01:43:44;20.73;;;13.03;;
11220;SDS011;8517;53.546;10.104;2024-03-08T01:46:12;20.50;;;13.67;;
11220;SDS011;8517;53.546;10.104;2024-03-08T01:48:43;19.20;;;13.20;;
11220;SDS011;8517;53.546;10.104;2024-03-08T01:51:10;19.80;;;13.83;;
11220;SDS011;8517;53.546;10.104;2024-03-08T01:53:40;19.30;;;13.27;;
11220;SDS011;8517;53.546;10.104;2024-03-08T01:56:10;20.40;;;13.40;;
11220;SDS011;8517;53.546;10.104;2024-03-08T01:58:38;20.03;;;13.53;;
11220;SDS011;8517;53.546;10.104;2024-03-08T02:01:08;19.77;;;13.30;;
11220;SDS011;8517;53.546;10.104;2024-03-08T02:03:37;18.33;;;12.87;;
11220;SDS011;8517;53.546;10.104;2024-03-08T02:06:04;16.93;;;11.67;;
11220;SDS011;8517;53.546;10.104;2024-03-08T02:08:35;20.40;;;14.13;;
11220;SDS011;8517;53.546;10.104;2024-03-08T02:11:03;18.70;;;13.23;;
11220;SDS011;8517;53.546;10.104;2024-03-08T02:13:30;18.13;;;13.37;;
11220;SDS011;8517;53.546;10.104;2024-03-08T02:15:57;17.80;;;12.77;;
11220;SDS011;8517;53.546;10.104;2024-03-08T02:18:25;18.17;;;12.97;;
11220;SDS011;8517;53.546;10.104;2024-03-08T02:20:54;22.23;;;13.40;;
11220;SDS011;8517;53.546;10.104;2024-03-08T02:23:22;20.43;;;13.93;;
11220;SDS011;8517;53.546;10.104;2024-03-08T02:25:50;20.73;;;13.23;;
11220;SDS011;8517;53.546;10.104;2024-03-08T02:28:18;22.40;;;14.20;;
11220;SDS011;8517;53.546;10.104;2024-03-08T02:30:46;17.83;;;12.83;;
11220;SDS011;8517;53.546;10.104;2024-03-08T02:33:13;19.73;;;13.60;;
11220;SDS011;8517;53.546;10.104;2024-03-08T02:35:41;21.77;;;13.80;;
11220;SDS011;8517;53.546;10.104;2024-03-08T02:38:12;20.80;;;13.70;;
11220;SDS011;8517;53.546;10.104;2024-03-08T02:40:41;18.03;;;13.17;;
11220;SDS011;8517;53.546;10.104;2024-03-08T02:43:08;19.73;;;13.87;;
11220;SDS011;8517;53.546;10.104;2024-03-08T02:45:35;19.60;;;13.13;;
11220;SDS011;8517;53.546;10.104;2024-03-08T02:48:02;19.33;;;13.40;;
11220;SDS011;8517;53.546;10.104;2024-03-08T02:50:31;22.37;;;14.13;;
11220;SDS011;8517;53.546;10.104;2024-03-08T02:52:58;18.20;;;12.90;;
11220;SDS011;8517;53.546;10.104;2024-03-08T02:55:26;20.53;;;14.23;;
11220;SDS011;8517;53.546;10.104;2024-03-08T02:57:54;19.53;;;13.80;;
11220;SDS011;8517;53.546;10.104;2024-03-08T03:00:22;21.30;;;13.63;;
11220;SDS011;8517;53.546;10.104;2024-03-08T03:02:49;20.33;;;13.03;;
11220;SDS011;8517;53.546;10.104;2024-03-08T03:05:18;21.13;;;13.87;;
11220;SDS011;8517;53.546;10.104;2024-03-08T03:07:45;18.63;;;13.13;;
11220;SDS011;8517;53.546;10.104;2024-03-08T03:10:13;20.40;;;13.40;;
11220;SDS011;8517;53.546;10.104;2024-03-08T03:12:43;20.67;;;13.97;;
11220;SDS011;8517;53.546;10.104;2024-03-08T03:15:11;20.33;;;13.53;;
11220;SDS011;8517;53.546;10.104;2024-03-08T03:17:38;22.00;;;12.87;;
11220;SDS011;8517;53.546;10.104;2024-03-08T03:20:06;17.00;;;11.73;;
11220;SDS011;8517;53.546;10.104;2024-03-08T03:22:38;20.20;;;13.50;;
11220;SDS011;8517;53.546;10.104;2024-03-08T03:25:06;20.83;;;14.53;;
11220;SDS011;8517;53.546;10.104;2024-03-08T03:27:34;21.40;;;13.23;;
11220;SDS011;8517;53.546;10.104;2024-03-08T03:30:03;22.63;;;13.83;;
11220;SDS011;8517;53.546;10.104;2024-03-08T03:32:58;20.57;;;13.10;;
11220;SDS011;8517;53.546;10.104;2024-03-08T03:35:26;22.27;;;14.40;;
11220;SDS011;8517;53.546;10.104;2024-03-08T03:37:54;21.13;;;14.03;;
11220;SDS011;8517;53.546;10.104;2024-03-08T03:40:30;22.03;;;14.43;;
11220;SDS011;8517;53.546;10.104;2024-03-08T03:42:57;20.67;;;13.53;;
11220;SDS011;8517;53.546;10.104;2024-03-08T03:45:24;23.17;;;14.63;;
11220;SDS011;8517;53.546;10.104;2024-03-08T03:47:51;20.83;;;14.10;;
11220;SDS011;8517;53.546;10.104;2024-03-08T03:50:19;24.07;;;13.10;;
11220;SDS011;8517;53.546;10.104;2024-03-08T03:52:47;21.93;;;14.83;;
11220;SDS011;8517;53.546;10.104;2024-03-08T03:55:14;22.20;;;14.73;;
11220;SDS011;8517;53.546;10.104;2024-03-08T03:57:41;23.10;;;14.83;;
11220;SDS011;8517;53.546;10.104;2024-03-08T04:00:11;20.80;;;13.30;;
11220;SDS011;8517;53.546;10.104;2024-03-08T04:02:38;20.77;;;14.00;;
11220;SDS011;8517;53.546;10.104;2024-03-08T04:05:06;23.30;;;14.43;;
11220;SDS011;8517;53.546;10.104;2024-03-08T04:07:35;21.77;;;14.07;;
11220;SDS011;8517;53.546;10.104;2024-03-08T04:10:03;18.53;;;12.83;;
11220;SDS011;8517;53.546;10.104;2024-03-08T04:12:32;22.23;;;13.40;;
11220;SDS011;8517;53.546;10.104;2024-03-08T04:14:59;23.17;;;14.73;;
11220;SDS011;8517;53.546;10.104;2024-03-08T04:17:25;20.60;;;13.77;;
11220;SDS011;8517;53.546;10.104;2024-03-08T04:19:53;21.47;;;13.17;;
11220;SDS011;8517;53.546;10.104;2024-03-08T04:22:20;21.43;;;13.90;;
11220;SDS011;8517;53.546;10.104;2024-03-08T04:24:49;23.83;;;13.10;;
11220;SDS011;8517;53.546;10.104;2024-03-08T04:27:16;18.87;;;13.73;;
11220;SDS011;8517;53.546;10.104;2024-03-08T04:29:42;23.40;;;14.10;;
11220;SDS011;8517;53.546;10.104;2024-03-08T04:32:09;21.03;;;14.50;;
11220;SDS011;8517;53.546;10.104;2024-03-08T04:34:38;21.40;;;14.03;;
11220;SDS011;8517;53.546;10.104;2024-03-08T04:37:05;21.87;;;14.20;;
11220;SDS011;8517;53.546;10.104;2024-03-08T04:39:32;22.43;;;15.57;;
11220;SDS011;8517;53.546;10.104;2024-03-08T04:42:01;19.93;;;13.80;;
11220;SDS011;8517;53.546;10.104;2024-03-08T04:44:29;25.20;;;14.90;;
11220;SDS011;8517;53.546;10.104;2024-03-08T04:46:56;22.90;;;14.83;;
11220;SDS011;8517;53.546;10.104;2024-03-08T04:49:23;21.13;;;14.07;;
11220;SDS011;8517;53.546;10.104;2024-03-08T04:51:50;21.03;;;14.63;;
11220;SDS011;8517;53.546;10.104;2024-03-08T04:54:17;22.37;;;14.07;;
11220;SDS011;8517;53.546;10.104;2024-03-08T04:56:43;23.57;;;15.30;;
11220;SDS011;8517;53.546;10.104;2024-03-08T04:59:12;20.57;;;12.77;;
11220;SDS011;8517;53.546;10.104;2024-03-08T05:01:39;20.40;;;14.00;;
11220;SDS011;8517;53.546;10.104;2024-03-08T05:04:06;23.07;;;14.77;;
11220;SDS011;8517;53.546;10.104;2024-03-08T05:06:33;26.37;;;14.53;;
11220;SDS011;8517;53.546;10.104;2024-03-08T05:08:59;21.33;;;14.37;;
11220;SDS011;8517;53.546;10.104;2024-03-08T05:11:38;20.97;;;14.03;;
11220;SDS011;8517;53.546;10.104;2024-03-08T05:14:05;20.83;;;13.53;;
11220;SDS011;8517;53.546;10.104;2024-03-08T05:16:33;20.93;;;12.60;;
11220;SDS011;8517;53.546;10.104;2024-03-08T05:19:00;23.30;;;15.07;;
11220;SDS011;8517;53.546;10.104;2024-03-08T05:21:27;24.17;;;14.47;;
11220;SDS011;8517;53.546;10.104;2024-03-08T05:23:54;22.40;;;14.73;;
11220;SDS011;8517;53.546;10.104;2024-03-08T05:26:21;21.80;;;14.00;;
11220;SDS011;8517;53.546;10.104;2024-03-08T05:28:48;23.53;;;15.13;;
11220;SDS011;8517;53.546;10.104;2024-03-08T05:31:17;22.10;;;14.30;;
11220;SDS011;8517;53.546;10.104;2024-03-08T05:33:47;20.80;;;14.20;;
11220;SDS011;8517;53.546;10.104;2024-03-08T05:36:14;23.20;;;14.70;;
11220;SDS011;8517;53.546;10.104;2024-03-08T05:38:41;22.00;;;14.53;;
11220;SDS011;8517;53.546;10.104;2024-03-08T05:41:08;20.80;;;13.10;;
11220;SDS011;8517;53.546;10.104;2024-03-08T05:43:35;21.70;;;14.07;;
11220;SDS011;8517;53.546;10.104;2024-03-08T05:46:02;23.07;;;15.83;;
11220;SDS011;8517;53.546;10.104;2024-03-08T05:48:30;22.27;;;14.97;;
11220;SDS011;8517;53.546;10.104;2024-03-08T05:50:59;19.30;;;13.37;;
11220;SDS011;8517;53.546;10.104;2024-03-08T05:53:26;25.70;;;15.83;;
11220;SDS011;8517;53.546;10.104;2024-03-08T05:55:56;21.40;;;14.30;;
11220;SDS011;8517;53.546;10.104;2024-03-08T05:58:23;22.00;;;13.63;;
11220;SDS011;8517;53.546;10.104;2024-03-08T06:00:50;21.77;;;12.97;;
11220;SDS011;8517;53.546;10.104;2024-03-08T06:03:17;18.90;;;12.60;;
11220;SDS011;8517;53.546;10.104;2024-03-08T06:05:46;25.10;;;15.80;;
11220;SDS011;8517;53.546;10.104;2024-03-08T06:08:15;22.63;;;13.83;;
11220;SDS011;8517;53.546;10.104;2024-03-08T06:10:44;22.63;;;16.07;;
11220;SDS011;8517;53.546;10.104;2024-03-08T06:13:13;21.73;;;14.53;;
11220;SDS011;8517;53.546;10.104;2024-03-08T06:15:40;20.73;;;13.03;;
11220;SDS011;8517;53.546;10.104;2024-03-08T06:18:07;22.83;;;13.40;;
11220;SDS011;8517;53.546;10.104;2024-03-08T06:20:35;26.20;;;16.27;;
11220;SDS011;8517;53.546;10.104;2024-03-08T06:23:08;24.53;;;14.83;;
11220;SDS011;8517;53.546;10.104;2024-03-08T06:25:37;26.07;;;15.63;;
11220;SDS011;8517;53.546;10.104;2024-03-08T06:28:04;41.73;;;27.30;;
11220;SDS011;8517;53.546;10.104;2024-03-08T06:30:31;24.03;;;15.83;;
11220;SDS011;8517;53.546;10.104;2024-03-08T06:33:02;20.23;;;13.80;;
11220;SDS011;8517;53.546;10.104;2024-03-08T06:35:34;22.57;;;14.37;;
11220;SDS011;8517;53.546;10.104;2024-03-08T06:38:02;21.10;;;15.07;;
11220;SDS011;8517;53.546;10.104;2024-03-08T06:40:32;22.37;;;15.67;;
11220;SDS011;8517;53.546;10.104;2024-03-08T06:43:01;24.17;;;16.13;;
11220;SDS011;8517;53.546;10.104;2024-03-08T06:45:30;24.77;;;16.43;;
11220;SDS011;8517;53.546;10.104;2024-03-08T06:47:57;22.77;;;15.20;;
11220;SDS011;8517;53.546;10.104;2024-03-08T06:50:25;26.40;;;15.70;;
11220;SDS011;8517;53.546;10.104;2024-03-08T06:52:52;25.07;;;16.70;;
11220;SDS011;8517;53.546;10.104;2024-03-08T06:55:19;18.77;;;13.80;;
11220;SDS011;8517;53.546;10.104;2024-03-08T06:57:46;24.17;;;15.60;;
11220;SDS011;8517;53.546;10.104;2024-03-08T07:00:14;23.37;;;15.93;;
11220;SDS011;8517;53.546;10.104;2024-03-08T07:02:45;24.90;;;16.97;;
11220;SDS011;8517;53.546;10.104;2024-03-08T07:05:13;27.10;;;16.47;;
11220;SDS011;8517;53.546;10.104;2024-03-08T07:07:41;23.30;;;16.43;;
11220;SDS011;8517;53.546;10.104;2024-03-08T07:10:08;24.40;;;16.43;;
11220;SDS011;8517;53.546;10.104;2024-03-08T07:12:38;20.20;;;12.67;;
11220;SDS011;8517;53.546;10.104;2024-03-08T07:15:05;23.93;;;16.73;;
11220;SDS011;8517;53.546;10.104;2024-03-08T07:17:34;26.53;;;17.20;;
11220;SDS011;8517;53.546;10.104;2024-03-08T07:20:01;26.70;;;18.17;;
11220;SDS011;8517;53.546;10.104;2024-03-08T07:22:32;22.57;;;15.13;;
11220;SDS011;8517;53.546;10.104;2024-03-08T07:24:59;28.90;;;18.17;;
11220;SDS011;8517;53.546;10.104;2024-03-08T07:27:44;26.67;;;17.50;;
11220;SDS011;8517;53.546;10.104;2024-03-08T07:30:12;25.80;;;18.33;;
11220;SDS011;8517;53.546;10.104;2024-03-08T07:33:00;27.73;;;18.87;;
11220;SDS011;8517;53.546;10.104;2024-03-08T07:35:27;27.13;;;18.23;;
11220;SDS011;8517;53.546;10.104;2024-03-08T07:37:54;32.37;;;19.50;;
11220;SDS011;8517;53.546;10.104;2024-03-08T07:40:21;27.23;;;19.23;;
11220;SDS011;8517;53.546;10.104;2024-03-08T07:42:49;26.90;;;18.50;;
11220;SDS011;8517;53.546;10.104;2024-03-08T07:45:16;30.33;;;19.03;;
11220;SDS011;8517;53.546;10.104;2024-03-08T07:47:46;28.67;;;18.77;;
11220;SDS011;8517;53.546;10.104;2024-03-08T07:50:15;28.57;;;19.43;;
11220;SDS011;8517;53.546;10.104;2024-03-08T07:52:42;23.43;;;16.23;;
11220;SDS011;8517;53.546;10.104;2024-03-08T07:55:09;27.87;;;18.80;;
11220;SDS011;8517;53.546;10.104;2024-03-08T07:57:36;27.20;;;17.20;;
11220;SDS011;8517;53.546;10.104;2024-03-08T08:00:06;28.37;;;19.17;;
11220;SDS011;8517;53.546;10.104;2024-03-08T08:02:33;29.30;;;20.37;;
11220;SDS011;8517;53.546;10.104;2024-03-08T08:05:00;29.50;;;19.60;;
11220;SDS011;8517;53.546;10.104;2024-03-08T08:07:28;29.50;;;19.90;;
11220;SDS011;8517;53.546;10.104;2024-03-08T08:09:55;30.87;;;20.93;;
11220;SDS011;8517;53.546;10.104;2024-03-08T08:12:22;22.57;;;13.30;;
11220;SDS011;8517;53.546;10.104;2024-03-08T08:14:49;26.47;;;17.30;;
11220;SDS011;8517;53.546;10.104;2024-03-08T08:17:16;32.23;;;21.27;;
11220;SDS011;8517;53.546;10.104;2024-03-08T08:19:43;28.07;;;18.73;;
11220;SDS011;8517;53.546;10.104;2024-03-08T08:22:10;27.00;;;19.10;;
11220;SDS011;8517;53.546;10.104;2024-03-08T08:24:38;27.30;;;20.47;;
11220;SDS011;8517;53.546;10.104;2024-03-08T08:27:05;26.47;;;18.33;;
11220;SDS011;8517;53.546;10.104;2024-03-08T08:29:34;26.37;;;18.67;;
11220;SDS011;8517;53.546;10.104;2024-03-08T08:32:01;25.83;;;16.77;;
11220;SDS011;8517;53.546;10.104;2024-03-08T08:34:28;27.33;;;19.37;;
11220;SDS011;8517;53.546;10.104;2024-03-08T08:36:55;22.83;;;15.03;;
11220;SDS011;8517;53.546;10.104;2024-03-08T08:39:21;29.77;;;20.07;;
11220;SDS011;8517;53.546;10.104;2024-03-08T08:41:52;26.57;;;19.47;;
11220;SDS011;8517;53.546;10.104;2024-03-08T08:44:19;27.50;;;19.73;;
11220;SDS011;8517;53.546;10.104;2024-03-08T08:46:46;26.50;;;20.03;;
11220;SDS011;8517;53.546;10.104;2024-03-08T08:49:18;31.10;;;20.67;;
11220;SDS011;8517;53.546;10.104;2024-03-08T08:51:48;26.03;;;17.27;;
11220;SDS011;8517;53.546;10.104;2024-03-08T08:54:15;25.17;;;17.90;;
11220;SDS011;8517;53.546;10.104;2024-03-08T08:56:42;24.80;;;18.50;;
11220;SDS011;8517;53.546;10.104;2024-03-08T08:59:11;26.27;;;18.63;;
11220;SDS011;8517;53.546;10.104;2024-03-08T09:01:39;25.70;;;19.40;;
11220;SDS011;8517;53.546;10.104;2024-03-08T09:04:05;27.93;;;18.90;;
11220;SDS011;8517;53.546;10.104;2024-03-08T09:06:33;22.03;;;14.53;;
11220;SDS011;8517;53.546;10.104;2024-03-08T09:09:01;22.50;;;15.40;;
11220;SDS011;8517;53.546;10.104;2024-03-08T09:11:30;25.33;;;17.57;;
11220;SDS011;8517;53.546;10.104;2024-03-08T09:13:57;24.47;;;16.13;;
11220;SDS011;8517;53.546;10.104;2024-03-08T09:16:25;23.97;;;17.33;;
11220;SDS011;8517;53.546;10.104;2024-03-08T09:18:52;21.27;;;14.43;;
11220;SDS011;8517;53.546;10.104;2024-03-08T09:21:19;23.17;;;17.13;;
11220;SDS011;8517;53.546;10.104;2024-03-08T09:23:47;25.37;;;16.70;;
11220;SDS011;8517;53.546;10.104;2024-03-08T09:26:13;17.63;;;12.03;;
11220;SDS011;8517;53.546;10.104;2024-03-08T09:28:40;21.13;;;12.70;;
11220;SDS011;8517;53.546;10.104;2024-03-08T09:31:07;20.50;;;13.97;;
11220;SDS011;8517;53.546;10.104;2024-03-08T09:33:37;24.07;;;16.00;;
11220;SDS011;8517;53.546;10.104;2024-03-08T09:36:05;23.47;;;16.10;;
11220;SDS011;8517;53.546;10.104;2024-03-08T09:38:33;22.17;;;16.37;;
11220;SDS011;8517;53.546;10.104;2024-03-08T09:41:00;26.17;;;19.17;;
11220;SDS011;8517;53.546;10.104;2024-03-08T09:43:29;29.33;;;18.80;;
11220;SDS011;8517;53.546;10.104;2024-03-08T09:45:56;16.80;;;11.03;;
11220;SDS011;8517;53.546;10.104;2024-03-08T09:48:24;23.50;;;17.23;;
11220;SDS011;8517;53.546;10.104;2024-03-08T09:50:53;16.47;;;10.83;;
11220;SDS011;8517;53.546;10.104;2024-03-08T09:53:21;20.20;;;15.20;;
11220;SDS011;8517;53.546;10.104;2024-03-08T09:55:49;18.50;;;13.53;;
11220;SDS011;8517;53.546;10.104;2024-03-08T09:58:17;13.60;;;8.30;;
11220;SDS011;8517;53.546;10.104;2024-03-08T10:01:01;15.93;;;10.07;;
11220;SDS011;8517;53.546;10.104;2024-03-08T10:03:29;23.70;;;16.20;;
11220;SDS011;8517;53.546;10.104;2024-03-08T10:06:01;17.20;;;10.43;;
11220;SDS011;8517;53.546;10.104;2024-03-08T10:08:29;24.17;;;16.70;;
11220;SDS011;8517;53.546;10.104;2024-03-08T10:10:56;20.23;;;12.43;;
11220;SDS011;8517;53.546;10.104;2024-03-08T10:13:23;24.57;;;16.40;;
11220;SDS011;8517;53.546;10.104;2024-03-08T10:15:52;22.83;;;14.83;;
11220;SDS011;8517;53.546;10.104;2024-03-08T10:18:19;23.47;;;16.77;;
11220;SDS011;8517;53.546;10.104;2024-03-08T10:20:46;24.03;;;15.10;;
11220;SDS011;8517;53.546;10.104;2024-03-08T10:23:35;18.53;;;10.63;;
11220;SDS011;8517;53.546;10.104;2024-03-08T10:26:11;16.37;;;9.63;;
11220;SDS011;8517;53.546;10.104;2024-03-08T10:28:44;17.67;;;10.80;;
11220;SDS011;8517;53.546;10.104;2024-03-08T10:31:12;20.50;;;13.80;;
11220;SDS011;8517;53.546;10.104;2024-03-08T10:33:40;23.20;;;16.93;;
11220;SDS011;8517;53.546;10.104;2024-03-08T10:36:08;23.37;;;16.53;;
11220;SDS011;8517;53.546;10.104;2024-03-08T10:38:36;24.33;;;16.53;;
11220;SDS011;8517;53.546;10.104;2024-03-08T10:41:04;19.80;;;14.10;;
11220;SDS011;8517;53.546;10.104;2024-03-08T10:43:32;22.77;;;15.90;;
11220;SDS011;8517;53.546;10.104;2024-03-08T10:46:13;23.57;;;15.87;;
11220;SDS011;8517;53.546;10.104;2024-03-08T10:48:51;16.80;;;12.03;;
11220;SDS011;8517;53.546;10.104;2024-03-08T10:51:22;20.30;;;13.37;;
11220;SDS011;8517;53.546;10.104;2024-03-08T10:53:50;23.50;;;17.33;;
11220;SDS011;8517;53.546;10.104;2024-03-08T10:56:20;14.23;;;9.13;;
11220;SDS011;8517;53.546;10.104;2024-03-08T10:58:47;18.67;;;12.60;;
11220;SDS011;8517;53.546;10.104;2024-03-08T11:01:15;20.63;;;15.37;;
11220;SDS011;8517;53.546;10.104;2024-03-08T11:03:45;20.00;;;13.70;;
11220;SDS011;8517;53.546;10.104;2024-03-08T11:06:18;21.53;;;14.93;;
11220;SDS011;8517;53.546;10.104;2024-03-08T11:08:49;25.80;;;17.53;;
11220;SDS011;8517;53.546;10.104;2024-03-08T11:11:26;16.73;;;12.03;;
11220;SDS011;8517;53.546;10.104;2024-03-08T11:13:55;21.00;;;14.50;;
11220;SDS011;8517;53.546;10.104;2024-03-08T11:16:36;18.33;;;13.13;;
11220;SDS011;8517;53.546;10.104;2024-03-08T11:19:06;22.13;;;14.63;;
11220;SDS011;8517;53.546;10.104;2024-03-08T11:21:56;19.67;;;14.83;;
11220;SDS011;8517;53.546;10.104;2024-03-08T11:24:25;19.40;;;12.17;;
11220;SDS011;8517;53.546;10.104;2024-03-08T11:26:54;20.67;;;15.97;;
11220;SDS011;8517;53.546;10.104;2024-03-08T11:29:37;19.80;;;13.27;;
11220;SDS011;8517;53.546;10.104;2024-03-08T11:32:05;17.87;;;13.53;;
11220;SDS011;8517;53.546;10.104;2024-03-08T11:34:34;17.63;;;12.03;;
11220;SDS011;8517;53.546;10.104;2024-03-08T11:37:03;10.57;;;6.73;;
11220;SDS011;8517;53.546;10.104;2024-03-08T11:39:33;17.53;;;12.70;;
11220;SDS011;8517;53.546;10.104;2024-03-08T11:41:59;16.97;;;12.93;;
11220;SDS011;8517;53.546;10.104;2024-03-08T11:44:27;18.97;;;13.20;;
11220;SDS011;8517;53.546;10.104;2024-03-08T11:46:54;11.53;;;8.60;;
11220;SDS011;8517;53.546;10.104;2024-03-08T11:49:21;20.60;;;13.87;;
11220;SDS011;8517;53.546;10.104;2024-03-08T11:51:50;20.17;;;13.97;;
11220;SDS011;8517;53.546;10.104;2024-03-08T11:54:18;15.07;;;11.33;;
11220;SDS011;8517;53.546;10.104;2024-03-08T11:56:47;14.73;;;10.67;;
11220;SDS011;8517;53.546;10.104;2024-03-08T11:59:17;13.20;;;8.60;;
11220;SDS011;8517;53.546;10.104;2024-03-08T12:01:56;12.83;;;8.93;;
11220;SDS011;8517;53.546;10.104;2024-03-08T12:04:24;13.20;;;8.27;;
11220;SDS011;8517;53.546;10.104;2024-03-08T12:06:51;15.27;;;11.40;;
11220;SDS011;8517;53.546;10.104;2024-03-08T12:09:19;17.53;;;13.50;;
11220;SDS011;8517;53.546;10.104;2024-03-08T12:11:48;14.83;;;10.10;;
11220;SDS011;8517;53.546;10.104;2024-03-08T12:14:18;19.33;;;13.27;;
11220;SDS011;8517;53.546;10.104;2024-03-08T12:16:45;18.13;;;14.23;;
11220;SDS011;8517;53.546;10.104;2024-03-08T12:19:13;17.13;;;11.50;;
11220;SDS011;8517;53.546;10.104;2024-03-08T12:21:41;21.53;;;14.40;;
11220;SDS011;8517;53.546;10.104;2024-03-08T12:24:14;16.60;;;12.77;;
11220;SDS011;8517;53.546;10.104;2024-03-08T12:26:44;11.67;;;8.10;;
11220;SDS011;8517;53.546;10.104;2024-03-08T12:29:21;18.07;;;12.03;;
11220;SDS011;8517;53.546;10.104;2024-03-08T12:31:54;16.37;;;12.20;;
11220;SDS011;8517;53.546;10.104;2024-03-08T12:34:23;15.33;;;11.37;;
11220;SDS011;8517;53.546;10.104;2024-03-08T12:36:55;17.67;;;13.17;;
11220;SDS011;8517;53.546;10.104;2024-03-08T12:39:22;14.90;;;9.73;;
11220;SDS011;8517;53.546;10.104;2024-03-08T12:41:54;18.03;;;13.77;;
11220;SDS011;8517;53.546;10.104;2024-03-08T12:44:23;18.37;;;13.27;;
11220;SDS011;8517;53.546;10.104;2024-03-08T12:46:51;18.63;;;12.53;;
11220;SDS011;8517;53.546;10.104;2024-03-08T12:49:28;21.00;;;14.70;;
11220;SDS011;8517;53.546;10.104;2024-03-08T12:52:08;18.03;;;13.47;;
11220;SDS011;8517;53.546;10.104;2024-03-08T12:54:36;19.80;;;12.07;;
11220;SDS011;8517;53.546;10.104;2024-03-08T12:57:03;19.30;;;12.50;;
11220;SDS011;8517;53.546;10.104;2024-03-08T12:59:32;20.13;;;12.43;;
11220;SDS011;8517;53.546;10.104;2024-03-08T13:01:59;17.10;;;12.50;;
11220;SDS011;8517;53.546;10.104;2024-03-08T13:04:25;14.20;;;8.17;;
11220;SDS011;8517;53.546;10.104;2024-03-08T13:06:52;20.97;;;14.07;;
11220;SDS011;8517;53.546;10.104;2024-03-08T13:09:20;13.37;;;8.07;;
11220;SDS011;8517;53.546;10.104;2024-03-08T13:11:48;17.93;;;12.87;;
11220;SDS011;8517;53.546;10.104;2024-03-08T13:14:20;15.57;;;10.90;;
11220;SDS011;8517;53.546;10.104;2024-03-08T13:17:09;16.87;;;11.77;;
11220;SDS011;8517;53.546;10.104;2024-03-08T13:19:37;14.80;;;10.27;;
11220;SDS011;8517;53.546;10.104;2024-03-08T13:22:23;15.27;;;9.17;;
11220;SDS011;8517;53.546;10.104;2024-03-08T13:25:18;15.27;;;10.40;;
11220;SDS011;8517;53.546;10.104;2024-03-08T13:27:45;15.90;;;12.37;;
11220;SDS011;8517;53.546;10.104;2024-03-08T13:30:15;16.10;;;11.97;;
11220;SDS011;8517;53.546;10.104;2024-03-08T13:32:43;16.03;;;12.40;;
11220;SDS011;8517;53.546;10.104;2024-03-08T13:35:10;14.57;;;9.07;;
11220;SDS011;8517;53.546;10.104;2024-03-08T13:37:39;13.03;;;9.43;;
11220;SDS011;8517;53.546;10.104;2024-03-08T13:40:06;15.70;;;12.60;;
11220;SDS011;8517;53.546;10.104;2024-03-08T13:42:36;14.77;;;10.57;;
11220;SDS011;8517;53.546;10.104;2024-03-08T13:45:04;21.13;;;13.17;;
11220;SDS011;8517;53.546;10.104;2024-03-08T13:47:35;16.50;;;12.40;;
11220;SDS011;8517;53.546;10.104;2024-03-08T13:50:06;16.23;;;11.93;;
11220;SDS011;8517;53.546;10.104;2024-03-08T13:52:36;15.23;;;11.80;;
11220;SDS011;8517;53.546;10.104;2024-03-08T13:55:04;16.73;;;10.57;;
11220;SDS011;8517;53.546;10.104;2024-03-08T13:57:31;18.83;;;12.73;;
11220;SDS011;8517;53.546;10.104;2024-03-08T14:00:02;17.13;;;10.27;;
11220;SDS011;8517;53.546;10.104;2024-03-08T14:02:32;14.73;;;10.57;;
11220;SDS011;8517;53.546;10.104;2024-03-08T14:05:00;14.90;;;9.43;;
11220;SDS011;8517;53.546;10.104;2024-03-08T14:07:27;14.30;;;9.57;;
11220;SDS011;8517;53.546;10.104;2024-03-08T14:09:55;8.83;;;5.30;;
11220;SDS011;8517;53.546;10.104;2024-03-08T14:12:24;18.97;;;10.33;;
11220;SDS011;8517;53.546;10.104;2024-03-08T14:14:51;14.23;;;8.80;;
11220;SDS011;8517;53.546;10.104;2024-03-08T14:17:18;11.00;;;7.53;;
11220;SDS011;8517;53.546;10.104;2024-03-08T14:19:45;13.20;;;7.80;;
11220;SDS011;8517;53.546;10.104;2024-03-08T14:22:13;15.30;;;11.60;;
11220;SDS011;8517;53.546;10.104;2024-03-08T14:24:40;16.70;;;11.57;;
11220;SDS011;8517;53.546;10.104;2024-03-08T14:27:07;13.80;;;9.47;;
11220;SDS011;8517;53.546;10.104;2024-03-08T14:29:43;15.40;;;10.33;;
11220;SDS011;8517;53.546;10.104;2024-03-08T14:32:11;14.03;;;8.63;;